Time;durP1;ratioP1;P1;durP2;ratioP2;P2;SDS_P1;SDS_P2;PMS_P1;PMS_P2;Temp;Humidity;BMP_temperature;BMP_pressure;BME280_temperature;BME280_humidity;BME280_pressure;Samples;Min_cycle;Max_cycle;Signal;HPM_P1;HPM_P2
2021/07/19 00:01:43;;;;;;;26.38;24.23;;;14.90;93.70;;;;;;5047307;29;20048;-70
2021/07/19 00:04:15;;;;;;;25.83;23.83;;;14.90;94.00;;;;;;5050992;29;20128;-69
2021/07/19 00:06:48;;;;;;;25.60;23.70;;;14.90;94.00;;;;;;5050482;29;20041;-69
2021/07/19 00:09:20;;;;;;;25.98;24.08;;;14.90;93.80;;;;;;5040766;29;20127;-68
2021/07/19 00:11:53;;;;;;;24.98;23.08;;;14.90;93.40;;;;;;5048064;29;20080;-70
2021/07/19 00:14:26;;;;;;;24.92;23.10;;;14.80;93.50;;;;;;5049957;29;20081;-69
2021/07/19 00:16:58;;;;;;;24.73;22.92;;;14.80;93.80;;;;;;5036906;29;20147;-68
2021/07/19 00:19:31;;;;;;;24.65;22.85;;;14.80;93.80;;;;;;5049715;29;20063;-69
2021/07/19 00:22:04;;;;;;;25.63;23.63;;;14.80;93.70;;;;;;5037084;29;20139;-68
2021/07/19 00:24:36;;;;;;;25.48;23.48;;;14.80;93.50;;;;;;5048647;29;20147;-69
2021/07/19 00:27:07;;;;;;;25.50;23.50;;;14.80;93.20;;;;;;5047953;29;20147;-69
2021/07/19 00:29:40;;;;;;;25.23;23.33;;;14.90;93.20;;;;;;5030738;29;20148;-69
2021/07/19 00:32:11;;;;;;;26.58;24.48;;;14.90;92.90;;;;;;5032527;29;20045;-70
2021/07/19 00:34:43;;;;;;;26.42;24.23;;;14.90;92.70;;;;;;5049031;29;20059;-69
2021/07/19 00:37:15;;;;;;;25.75;23.75;;;14.80;92.70;;;;;;5046552;29;20056;-69
2021/07/19 00:39:48;;;;;;;25.98;23.98;;;14.80;92.90;;;;;;5035538;29;20052;-69
2021/07/19 00:42:20;;;;;;;25.40;23.48;;;14.70;92.90;;;;;;5039590;29;20080;-69
2021/07/19 00:44:52;;;;;;;26.13;24.05;;;14.70;93.10;;;;;;5049453;29;20064;-69
2021/07/19 00:47:24;;;;;;;25.63;23.63;;;14.60;92.80;;;;;;5047145;29;20045;-69
2021/07/19 00:49:56;;;;;;;25.92;24.02;;;14.60;92.90;;;;;;5033006;29;20044;-69
2021/07/19 00:52:30;;;;;;;26.75;24.55;;;14.60;93.00;;;;;;5033367;29;20104;-69
2021/07/19 00:55:04;;;;;;;25.95;23.77;;;14.60;93.40;;;;;;5048403;29;20082;-69
2021/07/19 00:57:38;;;;;;;25.52;23.58;;;14.60;92.90;;;;;;5038055;29;20069;-70
2021/07/19 01:00:12;;;;;;;26.80;24.63;;;14.60;92.80;;;;;;5031342;29;20576;-69
2021/07/19 01:02:49;;;;;;;25.58;23.58;;;14.60;93.10;;;;;;5030511;29;20079;-71
2021/07/19 01:05:21;;;;;;;27.30;24.83;;;14.60;93.00;;;;;;5046644;29;20045;-69
2021/07/19 01:07:54;;;;;;;27.30;25.02;;;14.60;93.60;;;;;;5047197;29;20055;-69
2021/07/19 01:10:27;;;;;;;27.15;24.95;;;14.60;93.90;;;;;;5023969;29;20148;-68
2021/07/19 01:13:01;;;;;;;27.88;25.17;;;14.60;93.30;;;;;;5039482;29;20547;-69
2021/07/19 01:15:38;;;;;;;28.52;26.17;;;14.60;93.40;;;;;;5046926;29;20101;-71
2021/07/19 01:18:13;;;;;;;27.95;25.65;;;14.60;93.50;;;;;;5040843;29;20045;-68
2021/07/19 01:21:00;;;;;;;27.73;25.50;;;14.60;93.10;;;;;;5048254;29;20129;-69
2021/07/19 01:23:37;;;;;;;27.73;25.30;;;14.70;93.20;;;;;;5050213;29;20528;-71
2021/07/19 01:26:31;;;;;;;28.30;25.90;;;14.60;92.80;;;;;;5048846;29;20109;-69
2021/07/19 01:29:06;;;;;;;27.10;25.02;;;14.60;92.90;;;;;;5048833;29;20076;-69
2021/07/19 01:31:46;;;;;;;26.07;24.03;;;14.60;92.60;;;;;;5047779;29;20055;-69
2021/07/19 01:34:22;;;;;;;27.33;25.02;;;14.50;93.20;;;;;;5048443;29;20147;-69
2021/07/19 01:37:02;;;;;;;26.80;24.70;;;14.50;92.20;;;;;;5046248;29;20396;-68
2021/07/19 01:39:59;;;;;;;24.92;22.92;;;14.50;91.60;;;;;;5040378;29;20123;-69
2021/07/19 01:42:36;;;;;;;25.98;23.67;;;14.50;91.60;;;;;;5045417;29;20956;-69
2021/07/19 01:45:09;;;;;;;26.30;24.25;;;14.50;91.40;;;;;;5031524;29;20055;-68
2021/07/19 01:47:44;;;;;;;27.02;24.58;;;14.50;91.50;;;;;;5048881;29;20060;-70
2021/07/19 01:50:18;;;;;;;26.15;23.83;;;14.50;92.60;;;;;;5042762;29;20061;-68
2021/07/19 01:53:19;;;;;;;24.17;22.38;;;14.40;91.40;;;;;;5039832;29;20496;-69
2021/07/19 01:55:54;;;;;;;24.08;22.27;;;14.40;90.10;;;;;;5021832;29;20140;-69
2021/07/19 01:58:30;;;;;;;27.08;24.92;;;14.30;90.60;;;;;;5034945;29;20049;-69
2021/07/19 02:01:09;;;;;;;27.45;25.15;;;14.30;92.60;;;;;;5034084;29;20049;-69
2021/07/19 02:03:42;;;;;;;27.42;24.98;;;14.30;92.70;;;;;;5044006;29;20100;-70
2021/07/19 02:06:15;;;;;;;25.88;23.88;;;14.40;92.40;;;;;;5038144;29;20069;-69
2021/07/19 02:09:05;;;;;;;24.55;22.75;;;14.40;92.00;;;;;;5023373;29;20053;-68
2021/07/19 02:12:03;;;;;;;23.63;21.92;;;14.40;90.40;;;;;;5021534;29;20049;-68
2021/07/19 02:14:41;;;;;;;23.63;21.88;;;14.30;90.10;;;;;;5038454;29;20068;-68
2021/07/19 02:17:19;;;;;;;23.80;21.90;;;14.30;90.00;;;;;;5033380;29;20044;-68
2021/07/19 02:19:53;;;;;;;24.27;22.38;;;14.30;89.50;;;;;;5028934;29;20459;-69
2021/07/19 02:22:30;;;;;;;24.45;22.65;;;14.20;89.30;;;;;;5033098;29;20507;-69
2021/07/19 02:25:11;;;;;;;23.95;22.15;;;14.20;89.30;;;;;;5028211;29;20052;-67
2021/07/19 02:27:52;;;;;;;24.15;22.35;;;14.20;89.10;;;;;;5030270;29;20060;-68
2021/07/19 02:30:26;;;;;;;24.23;22.42;;;14.10;88.90;;;;;;5026188;29;21026;-68
2021/07/19 02:32:59;;;;;;;24.23;22.42;;;14.10;89.00;;;;;;5037751;29;20097;-69
2021/07/19 02:35:35;;;;;;;25.35;23.40;;;14.10;89.10;;;;;;5029698;29;20041;-68
2021/07/19 02:38:10;;;;;;;24.27;22.35;;;14.10;89.20;;;;;;5050208;29;20468;-69
2021/07/19 02:40:52;;;;;;;24.65;22.75;;;14.00;89.20;;;;;;5035969;29;20037;-68
2021/07/19 02:43:26;;;;;;;23.98;22.17;;;14.00;88.80;;;;;;5034658;29;20140;-69
2021/07/19 02:45:59;;;;;;;23.50;21.50;;;14.00;88.60;;;;;;5038982;29;20045;-68
2021/07/19 02:48:36;;;;;;;23.58;21.45;;;13.90;88.80;;;;;;5033780;29;20051;-69
2021/07/19 02:51:11;;;;;;;23.42;21.63;;;13.90;88.70;;;;;;5040334;29;20131;-69
2021/07/19 02:53:46;;;;;;;23.48;21.55;;;13.90;88.60;;;;;;5034773;29;20064;-70
2021/07/19 02:56:23;;;;;;;23.42;21.73;;;13.80;88.40;;;;;;5033600;29;20081;-68
2021/07/19 02:58:56;;;;;;;25.10;23.02;;;13.90;88.60;;;;;;5038063;29;20833;-69
2021/07/19 03:01:31;;;;;;;24.38;22.27;;;13.80;88.60;;;;;;5052550;29;20135;-68
2021/07/19 03:04:04;;;;;;;24.15;22.27;;;13.80;88.80;;;;;;5049626;29;20060;-69
2021/07/19 03:06:43;;;;;;;24.42;22.42;;;13.70;89.00;;;;;;5051496;29;20041;-67
2021/07/19 03:09:20;;;;;;;25.00;23.00;;;13.70;89.30;;;;;;5050348;29;20036;-67
2021/07/19 03:11:53;;;;;;;23.67;21.88;;;13.70;89.10;;;;;;5040606;29;20045;-67
2021/07/19 03:14:32;;;;;;;22.83;21.13;;;13.70;89.10;;;;;;5051474;29;20093;-67
2021/07/19 03:17:07;;;;;;;23.67;21.70;;;13.70;88.90;;;;;;5049273;29;20109;-67
2021/07/19 03:19:42;;;;;;;25.08;22.95;;;13.70;89.40;;;;;;5032803;29;20037;-67
2021/07/19 03:22:17;;;;;;;25.45;23.45;;;13.70;89.90;;;;;;5041252;29;20041;-67
2021/07/19 03:25:04;;;;;;;25.25;23.23;;;13.60;90.30;;;;;;5036804;29;20132;-67
2021/07/19 03:27:38;;;;;;;25.52;23.45;;;13.70;90.30;;;;;;5042421;29;20566;-66
2021/07/19 03:30:12;;;;;;;26.30;24.20;;;13.60;90.00;;;;;;5036615;29;20049;-68
2021/07/19 03:32:50;;;;;;;26.20;23.90;;;13.70;90.40;;;;;;5040659;29;20041;-68
2021/07/19 03:35:31;;;;;;;24.90;22.75;;;13.60;90.30;;;;;;5034935;29;20526;-67
2021/07/19 03:38:08;;;;;;;26.33;24.08;;;13.60;90.10;;;;;;5045971;29;20104;-68
2021/07/19 03:41:00;;;;;;;25.75;23.65;;;13.60;90.00;;;;;;5052919;29;20062;-67
2021/07/19 03:43:36;;;;;;;24.67;22.77;;;13.60;90.20;;;;;;5036735;29;20041;-67
2021/07/19 03:46:09;;;;;;;23.60;21.90;;;13.60;90.20;;;;;;5025600;29;20045;-67
2021/07/19 03:48:43;;;;;;;24.48;22.58;;;13.60;89.60;;;;;;5037682;29;20064;-67
2021/07/19 03:51:15;;;;;;;25.83;23.67;;;13.60;89.60;;;;;;5037020;29;20069;-68
2021/07/19 03:53:51;;;;;;;24.38;22.48;;;13.60;89.80;;;;;;5034573;29;20052;-67
2021/07/19 03:56:28;;;;;;;24.15;22.35;;;13.60;89.50;;;;;;5024606;29;20044;-68
2021/07/19 03:59:00;;;;;;;23.73;21.80;;;13.60;89.40;;;;;;5034997;29;20063;-67
2021/07/19 04:01:38;;;;;;;22.90;21.17;;;13.50;89.20;;;;;;5046503;29;20056;-67
2021/07/19 04:04:17;;;;;;;22.83;20.77;;;13.50;88.70;;;;;;5048401;29;20396;-69
2021/07/19 04:06:55;;;;;;;21.38;19.88;;;13.40;88.30;;;;;;5047404;29;20080;-67
2021/07/19 04:09:29;;;;;;;22.00;20.40;;;13.30;88.80;;;;;;5038711;29;20658;-68
2021/07/19 04:12:01;;;;;;;22.30;20.60;;;13.30;89.10;;;;;;5034860;29;20076;-68
2021/07/19 04:14:35;;;;;;;24.40;22.30;;;13.30;88.90;;;;;;5049474;29;20045;-67
2021/07/19 04:17:09;;;;;;;23.88;21.95;;;13.30;89.50;;;;;;5035258;29;20427;-67
2021/07/19 04:19:44;;;;;;;24.50;22.60;;;13.30;89.70;;;;;;5047333;29;20415;-68
2021/07/19 04:22:19;;;;;;;23.63;21.92;;;13.30;89.80;;;;;;5034490;29;20072;-66
2021/07/19 04:25:12;;;;;;;24.65;22.67;;;13.30;89.80;;;;;;5045609;29;20048;-67
2021/07/19 04:27:47;;;;;;;26.00;23.88;;;13.30;90.20;;;;;;5040707;29;20052;-67
2021/07/19 04:30:20;;;;;;;23.83;21.55;;;13.40;91.10;;;;;;5035406;29;20392;-67
2021/07/19 04:32:57;;;;;;;23.10;21.40;;;13.40;89.60;;;;;;5040054;29;20574;-68
2021/07/19 04:35:29;;;;;;;23.30;21.60;;;13.40;89.80;;;;;;5049989;29;20049;-67
2021/07/19 04:38:02;;;;;;;22.60;21.00;;;13.40;89.90;;;;;;5032845;29;20114;-67
2021/07/19 04:40:34;;;;;;;23.80;22.08;;;13.40;89.60;;;;;;5040547;29;20045;-67
2021/07/19 04:43:06;;;;;;;23.40;21.67;;;13.40;90.00;;;;;;5029452;29;20087;-68
2021/07/19 04:45:38;;;;;;;24.85;22.85;;;13.50;90.20;;;;;;5037939;29;20128;-67
2021/07/19 04:48:11;;;;;;;26.63;23.98;;;13.50;91.10;;;;;;5035736;29;20119;-67
2021/07/19 04:50:44;;;;;;;25.42;23.33;;;13.60;92.00;;;;;;5046812;29;20044;-68
2021/07/19 04:53:17;;;;;;;25.73;23.73;;;13.70;92.20;;;;;;5036301;29;20078;-67
2021/07/19 04:55:52;;;;;;;24.52;22.73;;;13.80;92.50;;;;;;5039721;29;20071;-68
2021/07/19 04:58:26;;;;;;;25.92;23.77;;;13.70;92.20;;;;;;5048530;29;20049;-68
2021/07/19 05:01:04;;;;;;;25.40;23.42;;;13.80;92.70;;;;;;5048555;29;20101;-67
2021/07/19 05:03:40;;;;;;;24.95;23.10;;;13.80;92.40;;;;;;5045810;29;20111;-68
2021/07/19 05:06:13;;;;;;;26.45;24.35;;;13.90;92.90;;;;;;5048027;29;20051;-67
2021/07/19 05:08:48;;;;;;;26.33;24.30;;;14.00;92.90;;;;;;5047319;29;20044;-70
2021/07/19 05:11:23;;;;;;;25.23;23.33;;;14.10;92.30;;;;;;5045479;29;20147;-68
2021/07/19 05:13:56;;;;;;;25.85;23.75;;;14.20;92.20;;;;;;5046480;29;20128;-69
2021/07/19 05:16:31;;;;;;;26.52;24.13;;;14.30;92.10;;;;;;5047043;29;20475;-68
2021/07/19 05:19:04;;;;;;;26.10;24.10;;;14.40;91.90;;;;;;5036932;29;20056;-69
2021/07/19 05:21:39;;;;;;;25.63;23.73;;;14.50;91.70;;;;;;5034055;29;20052;-68
2021/07/19 05:24:10;;;;;;;26.77;24.67;;;14.60;91.90;;;;;;5030669;29;20180;-69
2021/07/19 05:26:45;;;;;;;26.73;24.58;;;14.70;91.70;;;;;;5045393;29;20410;-69
2021/07/19 05:29:17;;;;;;;25.27;23.42;;;14.80;91.60;;;;;;5048068;29;20055;-71
2021/07/19 05:31:49;;;;;;;25.77;23.77;;;15.00;91.30;;;;;;5048967;29;20045;-69
2021/07/19 05:34:21;;;;;;;25.13;23.33;;;15.10;91.30;;;;;;5047885;29;20044;-70
2021/07/19 05:36:53;;;;;;;26.23;24.17;;;15.20;90.90;;;;;;5046561;29;20207;-69
2021/07/19 05:39:25;;;;;;;26.15;24.25;;;15.30;91.20;;;;;;5046355;29;20057;-69
2021/07/19 05:41:56;;;;;;;26.80;24.75;;;15.50;90.80;;;;;;5046272;29;20055;-69
2021/07/19 05:44:28;;;;;;;26.63;24.63;;;15.60;90.80;;;;;;5046746;29;20578;-69
2021/07/19 05:47:01;;;;;;;26.27;24.20;;;15.70;90.70;;;;;;5048494;29;20686;-69
2021/07/19 05:49:34;;;;;;;26.23;24.15;;;15.80;91.00;;;;;;5045388;29;20148;-69
2021/07/19 05:52:06;;;;;;;25.48;23.58;;;15.90;90.50;;;;;;5047024;29;20051;-70
2021/07/19 05:54:38;;;;;;;25.48;23.48;;;16.00;90.10;;;;;;5047004;29;20048;-69
2021/07/19 05:57:10;;;;;;;25.58;23.67;;;16.10;89.70;;;;;;5020962;29;20049;-69
2021/07/19 05:59:42;;;;;;;25.77;23.88;;;16.20;88.80;;;;;;5048056;29;20041;-69
2021/07/19 06:02:17;;;;;;;25.92;24.02;;;16.20;88.90;;;;;;5044137;29;20230;-69
2021/07/19 06:04:49;;;;;;;25.23;23.27;;;16.30;89.00;;;;;;5034968;29;20523;-70
2021/07/19 06:07:21;;;;;;;26.08;24.10;;;16.40;88.50;;;;;;5043952;29;20093;-69
2021/07/19 06:09:53;;;;;;;25.60;23.70;;;16.50;88.50;;;;;;5034786;29;20128;-72
2021/07/19 06:12:25;;;;;;;25.67;23.77;;;16.50;88.10;;;;;;5045273;29;20498;-69
2021/07/19 06:14:57;;;;;;;25.27;23.38;;;16.70;87.90;;;;;;5045004;29;20643;-70
2021/07/19 06:17:30;;;;;;;25.88;23.80;;;16.70;87.40;;;;;;5047110;29;20425;-69
2021/07/19 06:20:04;;;;;;;26.30;24.38;;;16.80;87.50;;;;;;5045789;29;20069;-70
2021/07/19 06:22:37;;;;;;;25.70;23.80;;;16.90;87.40;;;;;;5044763;29;20056;-69
2021/07/19 06:25:11;;;;;;;26.05;24.05;;;16.90;87.00;;;;;;5046262;29;20498;-69
2021/07/19 06:27:44;;;;;;;26.95;24.85;;;17.10;87.30;;;;;;5050774;29;20048;-70
2021/07/19 06:30:16;;;;;;;26.85;24.75;;;17.20;86.20;;;;;;5050534;29;20060;-69
2021/07/19 06:32:48;;;;;;;27.67;25.15;;;17.30;87.30;;;;;;5049080;29;20068;-71
2021/07/19 06:35:20;;;;;;;26.55;24.55;;;17.40;86.80;;;;;;5047559;29;20053;-69
2021/07/19 06:37:52;;;;;;;27.02;24.83;;;17.50;86.00;;;;;;5049943;29;20056;-69
2021/07/19 06:40:24;;;;;;;26.35;24.27;;;17.60;85.60;;;;;;5046813;29;20076;-69
2021/07/19 06:42:56;;;;;;;26.58;24.30;;;17.60;85.70;;;;;;5050057;29;20115;-69
2021/07/19 06:45:28;;;;;;;27.15;24.92;;;17.70;85.70;;;;;;5050208;29;20060;-69
2021/07/19 06:48:00;;;;;;;25.88;23.95;;;17.80;86.30;;;;;;5052821;29;20116;-69
2021/07/19 06:50:32;;;;;;;27.38;25.27;;;17.90;85.10;;;;;;5050304;29;20658;-69
2021/07/19 06:53:04;;;;;;;27.10;24.85;;;18.00;85.20;;;;;;5051406;29;20052;-70
2021/07/19 06:55:36;;;;;;;27.67;25.48;;;18.10;85.80;;;;;;5049533;29;20542;-69
2021/07/19 06:58:08;;;;;;;28.08;25.77;;;18.20;84.10;;;;;;5049879;29;20049;-69
2021/07/19 07:00:40;;;;;;;28.23;26.00;;;18.30;82.70;;;;;;5050081;29;21062;-69
2021/07/19 07:03:12;;;;;;;28.83;26.52;;;18.40;83.50;;;;;;5051241;29;20052;-69
2021/07/19 07:05:44;;;;;;;28.40;26.02;;;18.50;84.10;;;;;;5050121;29;20527;-70
2021/07/19 07:08:16;;;;;;;28.15;25.95;;;18.60;83.30;;;;;;5051941;29;20591;-72
2021/07/19 07:10:49;;;;;;;27.38;25.35;;;18.70;83.60;;;;;;5048418;29;20586;-71
2021/07/19 07:13:21;;;;;;;27.67;25.52;;;18.80;81.60;;;;;;5047049;29;20041;-71
2021/07/19 07:15:53;;;;;;;27.75;25.60;;;18.90;81.20;;;;;;5053083;29;20045;-71
2021/07/19 07:18:25;;;;;;;28.50;26.17;;;19.00;81.90;;;;;;5050217;29;20048;-69
2021/07/19 07:20:57;;;;;;;27.88;25.67;;;19.10;81.40;;;;;;5050019;29;20080;-69
2021/07/19 07:23:28;;;;;;;28.52;26.17;;;19.20;80.80;;;;;;5050950;29;20591;-69
2021/07/19 07:26:00;;;;;;;29.08;26.80;;;19.30;79.50;;;;;;5048274;29;20144;-70
2021/07/19 07:28:33;;;;;;;27.60;25.50;;;19.30;79.40;;;;;;5050339;29;20535;-69
2021/07/19 07:31:05;;;;;;;28.45;26.25;;;19.40;79.60;;;;;;5049858;29;20524;-70
2021/07/19 07:33:38;;;;;;;28.80;26.15;;;19.50;79.50;;;;;;5047805;29;20135;-69
2021/07/19 07:36:10;;;;;;;28.33;26.02;;;19.50;78.60;;;;;;5049581;29;20152;-69
2021/07/19 07:38:41;;;;;;;28.50;26.20;;;19.60;79.10;;;;;;5052765;29;20521;-69
2021/07/19 07:41:14;;;;;;;28.02;25.65;;;19.80;79.60;;;;;;5046517;29;20064;-69
2021/07/19 07:43:46;;;;;;;28.42;26.02;;;19.90;77.00;;;;;;5048729;29;20109;-69
2021/07/19 07:46:18;;;;;;;27.65;25.45;;;19.90;77.60;;;;;;5047922;29;20128;-70
2021/07/19 07:48:51;;;;;;;28.38;26.08;;;20.00;78.20;;;;;;5049015;29;20041;-69
2021/07/19 07:51:23;;;;;;;27.58;25.25;;;20.10;79.20;;;;;;5051043;29;20047;-70
2021/07/19 07:53:56;;;;;;;28.63;26.10;;;20.20;78.10;;;;;;5027010;29;20057;-70
2021/07/19 07:56:28;;;;;;;28.65;26.25;;;20.30;77.90;;;;;;5048399;29;20049;-70
2021/07/19 07:59:01;;;;;;;28.35;25.88;;;20.30;76.90;;;;;;5051909;29;20081;-70
2021/07/19 08:01:33;;;;;;;27.98;25.70;;;20.40;77.20;;;;;;5047843;29;20045;-69
2021/07/19 08:04:05;;;;;;;28.35;26.10;;;20.30;75.10;;;;;;5048802;29;20451;-70
2021/07/19 08:06:37;;;;;;;28.60;26.20;;;20.50;77.90;;;;;;5050425;29;20483;-70
2021/07/19 08:09:08;;;;;;;28.65;26.15;;;20.60;76.70;;;;;;5049031;29;20044;-70
2021/07/19 08:11:41;;;;;;;29.45;27.05;;;20.70;76.10;;;;;;5049921;29;20570;-70
2021/07/19 08:14:13;;;;;;;29.35;26.85;;;20.80;78.00;;;;;;5048958;29;20097;-70
2021/07/19 08:16:45;;;;;;;28.42;25.88;;;20.80;75.20;;;;;;5047542;29;20048;-70
2021/07/19 08:19:17;;;;;;;29.75;27.25;;;20.90;77.70;;;;;;5050527;29;20071;-70
2021/07/19 08:21:52;;;;;;;29.02;26.52;;;20.90;77.20;;;;;;5035470;29;20125;-70
2021/07/19 08:24:25;;;;;;;30.23;27.83;;;21.10;75.70;;;;;;5046849;29;20489;-70
2021/07/19 08:26:57;;;;;;;29.40;27.13;;;21.20;77.60;;;;;;5050467;29;20136;-70
2021/07/19 08:29:29;;;;;;;29.92;27.30;;;21.30;79.10;;;;;;5048525;29;20097;-70
2021/07/19 08:32:00;;;;;;;29.73;27.23;;;21.40;78.40;;;;;;5044585;29;20049;-70
2021/07/19 08:34:34;;;;;;;30.00;27.55;;;21.50;75.70;;;;;;5046764;29;20128;-70
2021/07/19 08:37:06;;;;;;;29.75;27.35;;;21.40;76.40;;;;;;5050407;29;20063;-70
2021/07/19 08:39:39;;;;;;;30.23;27.67;;;21.60;77.20;;;;;;5051275;29;20178;-70
2021/07/19 08:42:15;;;;;;;30.33;27.80;;;21.60;76.70;;;;;;5047670;29;20508;-72
2021/07/19 08:44:47;;;;;;;31.67;29.00;;;21.80;77.90;;;;;;5048133;29;20653;-70
2021/07/19 08:47:19;;;;;;;31.20;28.60;;;21.90;79.10;;;;;;5052376;29;20055;-70
2021/07/19 08:49:51;;;;;;;30.95;28.33;;;21.80;74.80;;;;;;5050939;29;20680;-71
2021/07/19 08:52:23;;;;;;;31.13;28.42;;;21.90;77.50;;;;;;5037407;29;20053;-71
2021/07/19 08:54:56;;;;;;;30.95;28.25;;;21.90;76.00;;;;;;5051365;29;20040;-70
2021/07/19 08:57:29;;;;;;;31.20;28.60;;;22.00;74.80;;;;;;5050510;29;20056;-70
2021/07/19 09:00:05;;;;;;;30.90;28.23;;;22.10;75.40;;;;;;5050274;29;20123;-72
2021/07/19 09:02:37;;;;;;;30.20;27.70;;;22.20;75.90;;;;;;5049326;29;20255;-70
2021/07/19 09:05:11;;;;;;;31.10;28.48;;;22.30;75.80;;;;;;5045386;29;20154;-69
2021/07/19 09:07:43;;;;;;;30.80;28.23;;;22.30;75.10;;;;;;5050751;29;20041;-71
2021/07/19 09:10:24;;;;;;;31.38;28.98;;;22.40;75.40;;;;;;5044878;29;20037;-71
2021/07/19 09:13:00;;;;;;;30.95;28.55;;;22.40;76.60;;;;;;5048822;29;20116;-71
2021/07/19 09:15:36;;;;;;;30.80;28.30;;;22.50;77.40;;;;;;5048123;29;20053;-70
2021/07/19 09:18:09;;;;;;;31.77;29.17;;;22.60;77.30;;;;;;5049722;29;20535;-70
2021/07/19 09:20:42;;;;;;;32.58;29.90;;;22.70;75.60;;;;;;5045406;29;20045;-71
2021/07/19 09:23:28;;;;;;;31.83;29.25;;;22.80;78.00;;;;;;5048576;29;20539;-72
2021/07/19 09:26:09;;;;;;;32.47;29.90;;;22.90;77.80;;;;;;5048820;29;20070;-70
2021/07/19 09:28:43;;;;;;;32.15;29.45;;;23.00;77.50;;;;;;5036578;29;20049;-70
2021/07/19 09:31:15;;;;;;;31.70;29.20;;;23.10;77.10;;;;;;5047945;29;20057;-70
2021/07/19 09:33:53;;;;;;;31.90;29.20;;;23.10;75.60;;;;;;5043925;29;20068;-71
2021/07/19 09:36:27;;;;;;;32.80;29.98;;;23.20;76.00;;;;;;5048251;29;20519;-70
2021/07/19 09:39:07;;;;;;;32.92;29.98;;;23.20;75.50;;;;;;5032121;29;20060;-70
2021/07/19 09:41:39;;;;;;;32.60;30.00;;;23.30;75.70;;;;;;5047640;29;20172;-71
2021/07/19 09:44:11;;;;;;;33.15;30.45;;;23.30;75.90;;;;;;5045336;29;20128;-70
2021/07/19 09:46:43;;;;;;;32.38;29.67;;;23.40;75.90;;;;;;5043810;29;20072;-70
2021/07/19 09:49:17;;;;;;;32.90;30.30;;;23.50;76.30;;;;;;5048534;29;20116;-70
2021/07/19 09:51:58;;;;;;;33.10;30.48;;;23.50;77.10;;;;;;5037818;29;20101;-72
2021/07/19 09:54:42;;;;;;;32.60;29.92;;;23.60;74.60;;;;;;5044889;29;20230;-70
2021/07/19 09:57:14;;;;;;;34.20;31.38;;;23.70;75.10;;;;;;5045409;29;20056;-72
2021/07/19 09:59:54;;;;;;;34.55;31.65;;;23.70;75.40;;;;;;5046347;29;20725;-71
2021/07/19 10:02:37;;;;;;;33.65;31.02;;;23.70;74.40;;;;;;5048236;29;20550;-71
2021/07/19 10:05:21;;;;;;;34.00;31.30;;;23.90;75.50;;;;;;5048902;29;20095;-70
2021/07/19 10:07:54;;;;;;;35.38;32.38;;;23.90;73.90;;;;;;5047807;29;20048;-73
2021/07/19 10:10:39;;;;;;;34.33;31.35;;;24.00;74.60;;;;;;5047475;29;20164;-71
2021/07/19 10:13:12;;;;;;;34.97;31.55;;;24.00;75.50;;;;;;5047432;29;20068;-70
2021/07/19 10:15:45;;;;;;;34.25;31.42;;;24.10;74.20;;;;;;5031742;29;20121;-70
2021/07/19 10:18:19;;;;;;;33.13;30.35;;;24.20;74.50;;;;;;5047072;29;20060;-70
2021/07/19 10:20:51;;;;;;;33.25;30.63;;;24.30;75.20;;;;;;5046531;29;20060;-71
2021/07/19 10:23:23;;;;;;;32.60;29.90;;;24.30;73.80;;;;;;5048401;29;20101;-71
2021/07/19 10:25:56;;;;;;;33.92;30.90;;;24.40;72.10;;;;;;5043369;29;20159;-70
2021/07/19 10:28:28;;;;;;;33.15;30.38;;;24.40;71.40;;;;;;5049455;29;20052;-71
2021/07/19 10:31:00;;;;;;;33.42;30.63;;;24.30;69.30;;;;;;5046653;29;20068;-70
2021/07/19 10:33:35;;;;;;;33.53;30.58;;;24.30;68.80;;;;;;5048683;29;20041;-71
2021/07/19 10:36:08;;;;;;;33.00;30.30;;;24.20;69.40;;;;;;5044567;29;20309;-70
2021/07/19 10:38:41;;;;;;;32.80;30.10;;;24.30;68.30;;;;;;5043785;29;20460;-70
2021/07/19 10:41:14;;;;;;;34.17;31.33;;;24.40;67.00;;;;;;5043946;29;20136;-70
2021/07/19 10:43:47;;;;;;;32.35;29.65;;;24.40;68.80;;;;;;5044582;29;20045;-70
2021/07/19 10:46:25;;;;;;;32.60;30.00;;;24.50;69.80;;;;;;5046115;29;20105;-71
2021/07/19 10:49:11;;;;;;;33.45;30.65;;;24.60;67.80;;;;;;5047639;29;20148;-70
2021/07/19 10:51:46;;;;;;;32.38;29.60;;;24.60;66.90;;;;;;5046225;29;20128;-70
2021/07/19 10:54:20;;;;;;;33.05;30.00;;;24.70;66.60;;;;;;5045114;29;20523;-72
2021/07/19 10:56:58;;;;;;;31.88;29.33;;;24.60;67.20;;;;;;5045825;29;20037;-72
2021/07/19 10:59:30;;;;;;;32.78;29.88;;;24.60;67.50;;;;;;5048318;29;20061;-71
2021/07/19 11:02:02;;;;;;;33.13;30.33;;;24.70;68.60;;;;;;5046199;29;20139;-70
2021/07/19 11:04:46;;;;;;;32.97;30.25;;;24.80;67.50;;;;;;5046169;29;20049;-71
2021/07/19 11:07:18;;;;;;;32.25;29.50;;;24.70;65.00;;;;;;5047079;29;20197;-71
2021/07/19 11:09:50;;;;;;;32.67;29.98;;;24.80;66.30;;;;;;5046484;29;20065;-70
2021/07/19 11:12:22;;;;;;;33.08;30.48;;;24.80;66.30;;;;;;5045741;29;20041;-70
2021/07/19 11:14:57;;;;;;;33.05;30.35;;;24.90;67.90;;;;;;5053003;29;20049;-72
2021/07/19 11:17:33;;;;;;;31.25;28.65;;;25.00;66.70;;;;;;5040215;29;20897;-70
2021/07/19 11:20:17;;;;;;;32.25;29.70;;;25.10;64.30;;;;;;5049758;29;20048;-70
2021/07/19 11:23:00;;;;;;;32.08;29.48;;;25.10;64.50;;;;;;5050533;29;20056;-71
2021/07/19 11:25:41;;;;;;;32.30;29.83;;;25.20;64.30;;;;;;5048761;29;20056;-71
2021/07/19 11:28:21;;;;;;;31.05;28.55;;;25.30;65.80;;;;;;5052964;29;20120;-71
2021/07/19 11:31:05;;;;;;;30.55;28.15;;;25.30;62.60;;;;;;5049483;29;20072;-72
2021/07/19 11:33:43;;;;;;;31.20;28.80;;;25.30;65.40;;;;;;5049089;29;20100;-72
2021/07/19 11:36:23;;;;;;;30.48;28.00;;;25.50;65.50;;;;;;5050179;29;20044;-70
2021/07/19 11:38:57;;;;;;;30.83;28.30;;;25.50;63.00;;;;;;5050513;29;20123;-70
2021/07/19 11:41:34;;;;;;;30.35;27.95;;;25.50;63.30;;;;;;5051049;29;20055;-70
2021/07/19 11:44:15;;;;;;;31.20;28.55;;;25.60;62.50;;;;;;5049370;29;20117;-70
2021/07/19 11:46:46;;;;;;;31.48;28.70;;;25.60;62.30;;;;;;5041496;29;20386;-71
2021/07/19 11:49:23;;;;;;;31.10;28.50;;;25.70;64.60;;;;;;5032344;29;20053;-71
2021/07/19 11:51:55;;;;;;;30.75;28.17;;;25.80;62.50;;;;;;5050389;29;20048;-70
2021/07/19 11:54:27;;;;;;;31.17;28.67;;;25.90;62.00;;;;;;5044744;29;20159;-70
2021/07/19 11:56:59;;;;;;;30.67;28.05;;;25.90;62.90;;;;;;5047933;29;20131;-70
2021/07/19 11:59:31;;;;;;;29.98;27.48;;;26.00;62.20;;;;;;5049389;29;20068;-70
2021/07/19 12:02:04;;;;;;;30.08;27.67;;;26.00;63.60;;;;;;5051048;29;20053;-70
2021/07/19 12:04:37;;;;;;;31.13;28.50;;;26.10;62.20;;;;;;5040501;29;20060;-71
2021/07/19 12:07:10;;;;;;;30.50;28.00;;;26.20;61.30;;;;;;5047497;29;20083;-71
2021/07/19 12:09:44;;;;;;;30.15;27.58;;;26.20;61.60;;;;;;5050292;29;20702;-71
2021/07/19 12:12:18;;;;;;;30.48;27.92;;;26.30;60.80;;;;;;5047851;29;20101;-71
2021/07/19 12:15:00;;;;;;;30.15;27.80;;;26.40;59.10;;;;;;5050570;29;20040;-72
2021/07/19 12:17:36;;;;;;;30.23;27.73;;;26.40;60.40;;;;;;5045924;29;20428;-72
2021/07/19 12:20:09;;;;;;;29.90;27.08;;;26.50;57.90;;;;;;5049171;29;20056;-71
2021/07/19 12:22:42;;;;;;;29.17;26.77;;;26.40;57.20;;;;;;5051042;29;20465;-70
2021/07/19 12:25:14;;;;;;;30.20;27.70;;;26.40;56.40;;;;;;5047787;29;20076;-70
2021/07/19 12:27:57;;;;;;;30.15;27.55;;;26.40;58.50;;;;;;5048430;29;20043;-72
2021/07/19 12:30:30;;;;;;;29.45;26.95;;;26.30;57.20;;;;;;5051575;29;20658;-70
2021/07/19 12:33:01;;;;;;;28.35;26.15;;;26.30;57.70;;;;;;5038509;29;20048;-70
2021/07/19 12:35:34;;;;;;;28.70;26.20;;;26.30;57.70;;;;;;5046484;29;20152;-70
2021/07/19 12:38:07;;;;;;;29.40;27.00;;;26.40;57.40;;;;;;5049181;29;20063;-69
2021/07/19 12:40:39;;;;;;;30.50;27.38;;;26.50;56.40;;;;;;5044898;29;20115;-70
2021/07/19 12:43:11;;;;;;;28.85;26.55;;;26.50;56.80;;;;;;5028180;29;20105;-73
2021/07/19 12:45:43;;;;;;;28.65;26.35;;;26.40;55.50;;;;;;5049676;29;20542;-73
2021/07/19 12:48:15;;;;;;;28.60;26.40;;;26.50;57.50;;;;;;5050395;29;20043;-73
2021/07/19 12:50:59;;;;;;;28.63;26.10;;;26.50;56.00;;;;;;5043287;29;20045;-74
2021/07/19 12:53:35;;;;;;;29.05;26.65;;;26.50;54.70;;;;;;5047401;29;20119;-73
2021/07/19 12:56:14;;;;;;;28.83;26.17;;;26.50;55.00;;;;;;5044440;29;20184;-73
2021/07/19 12:58:59;;;;;;;28.20;25.70;;;26.50;54.40;;;;;;5047758;29;20049;-74
2021/07/19 13:01:35;;;;;;;28.42;26.13;;;26.50;53.10;;;;;;5046135;29;20419;-74
2021/07/19 13:04:10;;;;;;;28.10;25.88;;;26.50;55.30;;;;;;5039277;29;20071;-73
2021/07/19 13:06:44;;;;;;;29.25;26.85;;;26.60;55.30;;;;;;5047452;29;20049;-72